KTAD

Perry Stokes Airport

Trinidad, Colorado, USA
METAR KTAD 212254Z AUTO 12005G15KT 10SM CLR 33/01 A3007 RMK AO2 LTG DSNT S AND SW SLP090 T03280006
Observed Flight Rules
Jun-21 @ 22:54 UTC (an hour ago) Visual Flight Rules
Wind Visibility Clouds
120° at 5 knots
 Gusting to 15 knots
10 miles
  • Clear skies
Temperatures Readings
Current 33°C / 91°F
Dewpoint 1°C / 34°F
Humidity 13%
Altimeter 30.07" Hg
Pressure 1009 hPa
Elevation 1756
METAR KTAD 212254Z AUTO 12005G15KT 10SM CLR 33/01 A3007 RMK AO2 LTG DSNT S AND SW SLP090 T03280006
Observed Flight Rules
Jun-21 @ 22:54 UTC
(an hour ago)
VFR
Wind Visibility
120° at 5 knots
 Gusting to 15 knots
10 miles
Clouds
  • Clear skies
Temperature Dewpoint
33°C / 91°F 1°C / 34°F
Humidity Altimeter Pressure
13% 30.07" Hg 1009 hPa